Time;durP1;ratioP1;P1;durP2;ratioP2;P2;SDS_P1;SDS_P2;PMS_P1;PMS_P2;Temp;Humidity;BMP_temperature;BMP_pressure;BME280_temperature;BME280_humidity;BME280_pressure;Samples;Min_cycle;Max_cycle;Signal;HPM_P1;HPM_P2
2022/10/10 00:00:29;;;;;;;167.85;108.32;;;;;;;28.66;73.73;101138.81;5016588;28;69861;-37
2022/10/10 00:03:00;;;;;;;166.20;103.07;;;;;;;28.33;74.63;101079.22;5011955;28;66347;-37
2022/10/10 00:05:30;;;;;;;146.10;89.28;;;;;;;28.75;74.02;101152.97;5016945;28;69789;-38
2022/10/10 00:08:00;;;;;;;137.95;84.57;;;;;;;28.78;74.22;101147.22;5016433;28;66167;-38
2022/10/10 00:10:32;;;;;;;123.03;72.05;;;;;;;28.78;75.57;101144.50;5014795;28;69391;-38
2022/10/10 00:13:04;;;;;;;116.63;68.23;;;;;;;28.84;73.21;101162.59;5015802;28;66044;-38
2022/10/10 00:15:34;;;;;;;106.75;66.75;;;;;;;28.84;76.03;101159.06;5016440;28;70348;-38
2022/10/10 00:18:04;;;;;;;94.55;52.85;;;;;;;28.78;76.80;101157.16;5014635;28;65691;-38
2022/10/10 00:20:35;;;;;;;83.95;45.97;;;;;;;28.92;76.96;101180.50;5017831;28;69616;-37
2022/10/10 00:23:05;;;;;;;76.65;41.08;;;;;;;28.94;76.19;101184.66;5017662;28;66486;-37
2022/10/10 00:25:37;;;;;;;68.97;37.88;;;;;;;28.98;75.96;101195.09;5016863;28;70062;-37
2022/10/10 00:28:07;;;;;;;60.55;32.78;;;;;;;28.93;77.68;101198.38;5015982;28;65220;-38
2022/10/10 00:30:39;;;;;;;63.20;31.20;;;;;;;28.99;76.60;101196.75;5015110;28;70291;-37
2022/10/10 00:33:09;;;;;;;46.45;24.77;;;;;;;29.09;72.34;101208.06;5016565;28;65358;-38
2022/10/10 00:35:40;;;;;;;42.17;23.10;;;;;;;29.11;71.81;101208.66;5021205;28;69435;-47
2022/10/10 00:38:12;;;;;;;36.88;21.45;;;;;;;29.12;70.92;101202.25;5020193;28;66812;-39
2022/10/10 00:40:55;;;;;;;26.40;18.13;;;;;;;29.12;71.30;101218.44;5020276;28;69974;-38
2022/10/10 00:43:27;;;;;;;29.17;16.73;;;;;;;29.20;70.50;101231.78;5018180;28;66201;-40
2022/10/10 00:45:57;;;;;;;;;;;;;;;28.79;72.01;101213.66;5002762;28;68997;-39
2022/10/10 00:48:35;;;;;;;19.40;13.32;;;;;;;28.83;70.38;101166.31;5021588;28;64893;-38
2022/10/10 00:51:18;;;;;;;25.73;12.45;;;;;;;29.23;70.57;101228.69;5016392;28;70504;-39
2022/10/10 00:54:15;;;;;;;18.20;12.23;;;;;;;29.09;70.86;101224.25;5021439;28;66291;-39
2022/10/10 00:56:55;;;;;;;19.00;13.43;;;;;;;29.21;69.93;101217.25;5016266;28;69946;-39
2022/10/10 00:59:29;;;;;;;19.45;11.85;;;;;;;28.90;70.09;101156.41;5013051;28;65613;-39
2022/10/10 01:02:00;;;;;;;14.32;10.80;;;;;;;29.24;70.81;101222.25;5021013;28;70234;-39
2022/10/10 01:04:39;;;;;;;14.25;10.77;;;;;;;29.25;70.42;101218.50;5004087;28;66192;-39
2022/10/10 01:07:20;;;;;;;12.93;10.50;;;;;;;29.31;70.64;101228.50;5021330;28;70129;-38
2022/10/10 01:09:54;;;;;;;14.93;10.75;;;;;;;28.84;70.23;101141.00;4998583;28;65359;-38
2022/10/10 01:12:57;;;;;;;15.80;9.77;;;;;;;29.25;69.87;101223.88;5015070;28;70454;-37
2022/10/10 01:16:00;;;;;;;13.55;8.93;;;;;;;28.81;70.57;101154.06;5020698;28;66448;-38
2022/10/10 01:19:04;;;;;;;7.72;6.88;;;;;;;29.19;70.58;101227.41;5011946;28;69920;-47
2022/10/10 01:22:02;;;;;;;8.82;7.03;;;;;;;29.22;70.37;101229.69;5003349;28;66227;-39
2022/10/10 01:24:39;;;;;;;8.15;7.43;;;;;;;29.33;70.66;101226.44;5016907;28;69605;-38
2022/10/10 01:27:30;;;;;;;10.15;6.93;;;;;;;29.24;70.49;101229.50;5018822;28;66774;-38
2022/10/10 01:30:15;;;;;;;6.32;5.80;;;;;;;29.32;70.99;101232.03;5016075;28;70021;-38
2022/10/10 01:32:53;;;;;;;6.60;6.00;;;;;;;28.86;70.42;101151.59;5018156;28;65948;-39
2022/10/10 01:35:57;;;;;;;5.60;5.15;;;;;;;28.90;70.73;101178.00;5011378;28;70823;-39
2022/10/10 01:38:55;;;;;;;6.72;5.90;;;;;;;29.14;70.71;101217.22;5013184;28;66241;-39
2022/10/10 01:41:42;;;;;;;5.95;5.20;;;;;;;28.87;71.35;101173.00;5018376;28;69832;-38
2022/10/10 01:44:14;;;;;;;7.90;5.40;;;;;;;29.43;71.28;101241.44;5020431;28;65765;-38
2022/10/10 01:46:48;;;;;;;5.80;5.13;;;;;;;29.45;71.04;101239.34;5021700;28;69872;-38
2022/10/10 01:49:24;;;;;;;6.25;4.63;;;;;;;29.01;70.98;101156.88;5020932;28;66674;-39
2022/10/10 01:52:01;;;;;;;5.18;4.78;;;;;;;29.47;70.77;101248.09;5021623;28;70196;-39
2022/10/10 01:54:49;;;;;;;4.82;4.43;;;;;;;29.45;70.85;101245.63;5020230;28;64920;-39
2022/10/10 01:57:57;;;;;;;4.90;4.50;;;;;;;29.06;71.76;101197.63;5020713;28;70421;-39
2022/10/10 02:00:29;;;;;;;5.15;4.65;;;;;;;29.49;71.36;101230.66;5018897;28;65280;-39
2022/10/10 02:03:11;;;;;;;5.60;5.20;;;;;;;29.10;71.28;101161.09;5018778;28;69140;-39
2022/10/10 02:06:07;;;;;;;9.63;4.97;;;;;;;28.92;71.31;101148.94;5019366;28;66069;-39
2022/10/10 02:09:01;;;;;;;5.43;5.03;;;;;;;29.40;71.40;101215.66;5021218;28;69550;-38
2022/10/10 02:11:37;;;;;;;6.25;5.30;;;;;;;29.57;71.84;101226.94;5015262;28;66590;-38
2022/10/10 02:14:17;;;;;;;6.07;5.47;;;;;;;29.09;71.59;101138.66;5019565;28;70349;-39
2022/10/10 02:16:51;;;;;;;7.13;5.15;;;;;;;29.60;71.96;101204.91;5018922;28;65631;-38
2022/10/10 02:19:24;;;;;;;5.45;5.05;;;;;;;29.62;71.32;101203.66;5015114;28;69839;-39
2022/10/10 02:21:55;;;;;;;5.70;5.18;;;;;;;29.62;71.74;101208.25;5017991;28;66190;-39
2022/10/10 02:24:25;;;;;;;6.07;5.20;;;;;;;29.62;71.58;101202.84;5002269;28;69178;-40
2022/10/10 02:27:02;;;;;;;6.97;5.50;;;;;;;29.66;71.44;101198.72;5020580;28;66311;-39
2022/10/10 02:29:36;;;;;;;7.55;5.55;;;;;;;29.26;72.30;101122.09;5021582;28;70227;-39
2022/10/10 02:32:26;;;;;;;5.85;5.32;;;;;;;29.20;72.50;101123.72;5001551;28;65666;-39
2022/10/10 02:35:03;;;;;;;5.93;5.32;;;;;;;29.51;72.33;101147.50;5019496;28;70535;-39
2022/10/10 02:37:36;;;;;;;6.22;5.20;;;;;;;29.30;71.59;101118.75;5021114;28;66637;-38
2022/10/10 02:40:10;;;;;;;6.00;5.50;;;;;;;29.74;72.35;101182.28;4998311;28;69992;-38
2022/10/10 02:42:41;;;;;;;6.03;5.55;;;;;;;29.70;71.94;101167.53;5014966;28;66430;-38
2022/10/10 02:45:13;;;;;;;6.85;5.57;;;;;;;29.76;72.24;101180.22;5020225;28;70182;-39
2022/10/10 02:47:44;;;;;;;6.00;5.47;;;;;;;29.77;71.79;101176.47;5003025;28;66234;-39
2022/10/10 02:50:15;;;;;;;5.57;4.93;;;;;;;29.77;72.36;101179.19;5017088;28;69910;-39
2022/10/10 02:52:46;;;;;;;5.73;5.33;;;;;;;29.79;72.21;101177.09;5020166;28;66816;-39
2022/10/10 02:55:17;;;;;;;6.20;5.70;;;;;;;29.79;71.87;101166.28;5017312;28;69269;-38
2022/10/10 02:57:47;;;;;;;5.80;5.30;;;;;;;29.77;71.87;101152.13;5017520;28;65451;-39
2022/10/10 03:00:19;;;;;;;6.32;5.82;;;;;;;29.88;71.86;101163.38;5019607;28;70589;-39
2022/10/10 03:02:49;;;;;;;5.80;5.05;;;;;;;29.77;71.24;101144.03;5018701;28;65567;-38
2022/10/10 03:05:20;;;;;;;5.50;5.10;;;;;;;29.83;71.58;101140.50;5016334;28;70014;-38
2022/10/10 03:07:51;;;;;;;6.80;5.93;;;;;;;29.92;71.92;101151.97;5016749;28;65353;-40
2022/10/10 03:10:21;;;;;;;6.07;5.55;;;;;;;29.94;71.85;101143.63;5016665;28;70376;-39
2022/10/10 03:12:53;;;;;;;7.70;7.07;;;;;;;29.95;71.50;101147.97;5017103;28;65168;-39
2022/10/10 03:15:23;;;;;;;8.70;6.72;;;;;;;29.93;71.66;101131.16;5015220;28;70035;-38
2022/10/10 03:17:54;;;;;;;7.32;6.72;;;;;;;29.99;71.78;101138.44;5018021;28;66376;-39
2022/10/10 03:20:24;;;;;;;8.38;7.72;;;;;;;30.02;71.80;101132.59;5018648;28;70420;-38
2022/10/10 03:22:55;;;;;;;9.23;8.25;;;;;;;30.04;71.55;101130.53;5019536;28;66173;-38
2022/10/10 03:25:25;;;;;;;8.27;7.60;;;;;;;30.06;71.24;101128.41;5000823;28;70376;-39
2022/10/10 03:27:56;;;;;;;9.32;8.35;;;;;;;30.05;71.77;101132.19;5014170;28;66028;-39
2022/10/10 03:30:26;;;;;;;10.77;9.15;;;;;;;29.84;71.34;101090.78;5019492;28;70379;-40
2022/10/10 03:32:57;;;;;;;12.38;11.27;;;;;;;30.03;71.66;101108.06;5013213;28;65738;-38
2022/10/10 03:35:28;;;;;;;11.60;10.68;;;;;;;30.12;71.79;101119.50;5015104;28;69335;-39
2022/10/10 03:37:58;;;;;;;14.98;13.57;;;;;;;30.16;71.36;101118.00;5020204;28;66461;-38
2022/10/10 03:40:47;;;;;;;23.27;18.30;;;;;;;30.16;72.26;101107.19;5018582;28;69220;-39
2022/10/10 03:43:17;;;;;;;55.75;20.98;;;;;;;30.18;71.50;101115.94;5019983;28;65776;-38
2022/10/10 03:45:49;;;;;;;26.48;18.75;;;;;;;30.16;70.86;101109.91;5019436;28;69671;-39
2022/10/10 03:48:20;;;;;;;27.45;18.77;;;;;;;30.20;71.20;101107.59;5019551;28;66082;-39
2022/10/10 03:50:50;;;;;;;39.20;23.60;;;;;;;30.16;70.85;101101.78;5017246;28;69660;-38
2022/10/10 03:53:21;;;;;;;26.75;21.08;;;;;;;30.10;71.25;101086.41;5018475;28;65587;-38
2022/10/10 03:55:54;;;;;;;26.37;23.03;;;;;;;29.66;71.28;101008.63;5017049;28;69886;-38
2022/10/10 03:58:24;;;;;;;30.20;25.20;;;;;;;30.19;71.90;101090.53;5014917;28;65050;-37
2022/10/10 04:01:00;;;;;;;39.10;24.80;;;;;;;30.15;71.95;101089.31;5019527;28;70553;-37
2022/10/10 04:03:31;;;;;;;43.00;33.83;;;;;;;30.17;72.19;101087.22;5015536;28;65972;-40
2022/10/10 04:06:01;;;;;;;40.88;30.67;;;;;;;30.20;72.16;101086.81;5020106;28;70273;-38
2022/10/10 04:08:32;;;;;;;41.28;33.67;;;;;;;30.10;72.18;101061.22;5014487;28;66913;-37
2022/10/10 04:11:03;;;;;;;43.90;38.65;;;;;;;30.23;72.09;101080.19;5015705;28;69169;-37
2022/10/10 04:13:33;;;;;;;49.70;41.20;;;;;;;30.24;71.96;101061.00;5020328;28;65604;-37
2022/10/10 04:16:04;;;;;;;45.08;37.78;;;;;;;30.27;71.79;101066.00;5021257;28;69271;-37
2022/10/10 04:18:35;;;;;;;59.90;49.23;;;;;;;30.25;72.13;101054.53;5022333;28;66157;-40
2022/10/10 04:21:06;;;;;;;87.93;78.40;;;;;;;30.35;71.70;101050.59;5020902;28;70307;-39
2022/10/10 04:23:36;;;;;;;95.65;85.95;;;;;;;30.37;71.71;101043.91;5022722;28;66966;-37
2022/10/10 04:26:08;;;;;;;96.85;86.32;;;;;;;30.39;71.51;101032.84;5004824;28;69697;-38
2022/10/10 04:28:38;;;;;;;95.53;85.80;;;;;;;30.40;71.47;101031.84;5013528;28;67178;-37
2022/10/10 04:31:09;;;;;;;95.68;85.68;;;;;;;30.44;71.53;101030.34;5018032;28;70399;-38
2022/10/10 04:33:39;;;;;;;96.10;86.07;;;;;;;30.45;71.44;101021.16;5022243;28;65892;-39
2022/10/10 04:36:10;;;;;;;94.20;84.85;;;;;;;30.46;71.25;101015.56;5013183;28;70739;-38
2022/10/10 04:38:40;;;;;;;94.20;84.60;;;;;;;30.49;71.22;101012.41;5022059;28;66231;-39
2022/10/10 04:41:11;;;;;;;106.05;95.28;;;;;;;30.41;70.75;100991.00;5021791;28;70027;-39
2022/10/10 04:43:42;;;;;;;104.28;93.45;;;;;;;30.51;70.51;100993.28;5017646;28;66294;-39
2022/10/10 04:46:12;;;;;;;102.13;91.25;;;;;;;30.50;70.68;100987.00;5022344;28;70014;-38
2022/10/10 04:48:43;;;;;;;99.85;89.85;;;;;;;30.53;70.36;100977.63;5020594;28;66181;-38
2022/10/10 04:51:13;;;;;;;96.07;86.15;;;;;;;30.45;70.73;100954.34;5020721;28;69506;-38
2022/10/10 04:53:44;;;;;;;91.28;81.75;;;;;;;30.48;70.61;100953.09;5015279;28;66305;-37
2022/10/10 04:56:18;;;;;;;101.45;91.20;;;;;;;30.60;70.27;100962.19;5011565;28;70176;-37
2022/10/10 04:58:50;;;;;;;95.88;86.10;;;;;;;30.61;70.27;100958.41;5008738;28;65955;-38
2022/10/10 05:01:20;;;;;;;104.97;94.63;;;;;;;30.60;70.61;100951.34;5014292;28;69420;-38
2022/10/10 05:03:51;;;;;;;110.40;99.45;;;;;;;30.54;70.61;100930.56;5014407;28;66204;-43
2022/10/10 05:06:22;;;;;;;106.53;95.75;;;;;;;30.66;70.54;100950.47;5006960;28;70442;-38
2022/10/10 05:08:52;;;;;;;108.00;97.00;;;;;;;30.67;70.31;100941.34;5014349;28;66841;-38
2022/10/10 05:11:23;;;;;;;107.15;96.65;;;;;;;30.68;69.96;100942.97;5009307;28;69825;-38
2022/10/10 05:13:53;;;;;;;108.13;97.43;;;;;;;30.63;70.40;100912.19;5012179;28;66842;-38
2022/10/10 05:16:24;;;;;;;108.15;97.55;;;;;;;30.70;70.26;100921.94;5013574;28;69926;-39
2022/10/10 05:18:56;;;;;;;106.93;96.22;;;;;;;30.72;70.13;100922.53;5009974;28;65420;-39
2022/10/10 05:21:27;;;;;;;105.03;94.15;;;;;;;30.72;70.11;100903.56;5018448;28;70479;-39
2022/10/10 05:23:58;;;;;;;104.50;93.85;;;;;;;30.73;70.06;100901.72;5009779;28;67203;-38
2022/10/10 05:26:28;;;;;;;113.97;102.90;;;;;;;30.76;70.03;100897.72;5010995;28;71136;-38
2022/10/10 05:29:00;;;;;;;110.40;99.78;;;;;;;30.37;70.35;100832.81;5001500;28;65935;-38
2022/10/10 05:31:31;;;;;;;111.68;100.45;;;;;;;30.70;70.00;100880.47;5020575;28;69622;-37
2022/10/10 05:34:01;;;;;;;118.38;106.60;;;;;;;30.80;70.25;100882.75;5021685;28;66608;-39
2022/10/10 05:36:32;;;;;;;118.72;107.55;;;;;;;30.81;70.28;100884.38;5020344;28;70443;-38
2022/10/10 05:39:03;;;;;;;115.68;104.28;;;;;;;30.80;70.36;100886.28;5016886;28;65544;-39
2022/10/10 05:41:34;;;;;;;115.20;103.57;;;;;;;30.84;70.19;100875.81;5021630;28;70181;-37
2022/10/10 05:44:05;;;;;;;111.00;100.15;;;;;;;30.86;70.20;100873.72;5021220;28;66606;-39
2022/10/10 05:46:35;;;;;;;119.32;107.25;;;;;;;30.87;70.65;100872.66;5022684;28;70581;-47
2022/10/10 05:49:06;;;;;;;117.20;106.18;;;;;;;30.87;70.65;100864.53;5021382;28;66384;-38
2022/10/10 05:51:36;;;;;;;118.45;107.18;;;;;;;30.91;70.35;100860.34;5021659;28;70013;-38
2022/10/10 05:54:07;;;;;;;111.65;100.80;;;;;;;30.76;70.09;100830.00;5013184;28;66668;-38
2022/10/10 05:56:38;;;;;;;111.03;100.30;;;;;;;30.94;70.08;100860.72;5020788;28;70121;-39
2022/10/10 05:59:08;;;;;;;115.97;104.80;;;;;;;30.95;70.04;100850.72;5008808;28;66526;-38
2022/10/10 06:01:40;;;;;;;113.10;102.30;;;;;;;30.61;70.26;100785.16;5020317;28;70607;-38
2022/10/10 06:04:10;;;;;;;110.32;99.68;;;;;;;30.96;69.78;100836.16;5021104;28;66067;-38
2022/10/10 06:06:41;;;;;;;107.68;97.38;;;;;;;30.88;69.92;100820.19;5020927;28;69646;-37
2022/10/10 06:09:11;;;;;;;106.68;96.22;;;;;;;31.02;70.23;100829.00;5020523;28;65463;-37
2022/10/10 06:11:42;;;;;;;105.03;94.70;;;;;;;31.04;70.22;100827.75;5016839;28;69397;-38
2022/10/10 06:14:12;;;;;;;104.57;94.28;;;;;;;31.04;70.28;100827.75;4998693;28;65655;-37
2022/10/10 06:16:44;;;;;;;102.30;92.50;;;;;;;30.87;69.97;100789.56;5012664;28;70601;-38
2022/10/10 06:19:15;;;;;;;102.07;92.22;;;;;;;30.93;70.19;100804.91;5006945;28;65983;-38
2022/10/10 06:21:48;;;;;;;103.55;93.35;;;;;;;31.08;70.31;100823.53;5013826;28;69713;-39
2022/10/10 06:24:18;;;;;;;100.18;90.07;;;;;;;31.12;69.98;100824.75;5010951;28;65764;-39
2022/10/10 06:26:49;;;;;;;96.22;86.60;;;;;;;31.13;69.58;100820.16;5009795;28;69578;-38
2022/10/10 06:29:19;;;;;;;95.15;85.45;;;;;;;31.16;69.56;100820.53;5008409;28;66260;-37
2022/10/10 06:31:50;;;;;;;94.78;85.10;;;;;;;31.20;70.02;100811.94;5016494;28;70044;-38
2022/10/10 06:34:20;;;;;;;89.82;81.05;;;;;;;31.19;69.74;100813.00;5010697;28;66491;-38
2022/10/10 06:36:51;;;;;;;87.65;78.72;;;;;;;31.23;70.08;100816.91;5009216;28;71257;-37
2022/10/10 06:39:22;;;;;;;86.50;77.80;;;;;;;31.26;69.61;100809.19;5013327;28;66228;-38
2022/10/10 06:41:53;;;;;;;86.15;77.35;;;;;;;31.30;69.39;100809.56;5011985;28;69803;-37
2022/10/10 06:44:23;;;;;;;83.05;74.78;;;;;;;31.32;69.50;100796.63;5008263;28;66378;-37
2022/10/10 06:47:13;;;;;;;81.20;72.88;;;;;;;31.34;69.67;100799.91;5009864;28;70666;-39
2022/10/10 06:49:43;;;;;;;82.65;73.95;;;;;;;31.34;69.25;100786.34;5009583;28;66233;-37
2022/10/10 06:52:14;;;;;;;81.00;72.68;;;;;;;31.41;69.09;100789.03;5010632;28;69491;-37
2022/10/10 06:54:44;;;;;;;78.78;70.82;;;;;;;31.32;69.39;100764.91;5000828;28;65407;-37
2022/10/10 06:57:15;;;;;;;76.90;69.03;;;;;;;31.46;68.97;100786.47;5006475;28;69163;-38
2022/10/10 06:59:46;;;;;;;74.70;66.90;;;;;;;31.44;69.15;100783.97;5008297;28;66063;-37
2022/10/10 07:02:16;;;;;;;74.35;66.68;;;;;;;31.52;68.83;100788.28;5013945;28;69658;-37
2022/10/10 07:04:47;;;;;;;69.07;62.20;;;;;;;31.52;68.88;100780.97;5007821;28;65553;-37
2022/10/10 07:07:17;;;;;;;68.88;61.78;;;;;;;31.55;69.14;100783.22;5011404;28;69545;-38
2022/10/10 07:09:47;;;;;;;69.50;62.22;;;;;;;31.57;69.21;100777.59;5009216;28;65852;-37
2022/10/10 07:12:18;;;;;;;68.45;61.50;;;;;;;31.59;69.23;100770.88;5014836;28;70057;-38
2022/10/10 07:14:48;;;;;;;67.68;60.75;;;;;;;31.60;69.12;100775.25;5019678;28;65793;-38
2022/10/10 07:17:19;;;;;;;63.35;56.95;;;;;;;31.60;68.85;100767.09;5018759;28;69920;-37
2022/10/10 07:19:49;;;;;;;65.38;58.55;;;;;;;31.55;69.10;100753.41;5018683;28;66768;-37
2022/10/10 07:22:20;;;;;;;61.15;55.30;;;;;;;31.65;69.13;100761.00;5020112;28;69595;-39
2022/10/10 07:24:50;;;;;;;62.17;55.85;;;;;;;31.68;68.64;100765.97;5018555;28;65686;-38
2022/10/10 07:27:21;;;;;;;60.58;54.15;;;;;;;31.71;68.90;100756.56;5019770;28;70212;-37
2022/10/10 07:29:51;;;;;;;58.78;52.53;;;;;;;31.49;68.71;100721.78;5019446;28;66145;-37
2022/10/10 07:32:22;;;;;;;57.22;51.38;;;;;;;31.74;68.82;100754.19;5014346;28;69390;-37
2022/10/10 07:34:52;;;;;;;55.53;49.50;;;;;;;31.75;68.57;100749.59;5018802;28;66371;-37
2022/10/10 07:37:23;;;;;;;55.10;49.28;;;;;;;31.76;68.63;100737.69;5002058;28;69746;-39
2022/10/10 07:39:54;;;;;;;52.95;47.30;;;;;;;31.77;68.67;100739.34;5017816;28;67180;-37
2022/10/10 07:42:24;;;;;;;51.35;46.17;;;;;;;31.76;68.44;100722.25;5019390;28;69833;-38
2022/10/10 07:44:55;;;;;;;49.85;45.03;;;;;;;31.82;68.68;100726.75;5019901;28;66676;-38
2022/10/10 07:47:25;;;;;;;48.92;43.90;;;;;;;31.85;68.78;100730.06;5018532;28;69580;-37
2022/10/10 07:49:56;;;;;;;48.08;43.03;;;;;;;31.84;68.66;100723.78;5020178;28;65600;-38
2022/10/10 07:52:27;;;;;;;47.50;42.50;;;;;;;31.76;68.73;100711.41;5019132;28;70365;-38
2022/10/10 07:54:57;;;;;;;45.65;41.22;;;;;;;31.85;68.26;100721.94;5016411;28;65800;-37
2022/10/10 07:57:28;;;;;;;46.03;41.25;;;;;;;31.89;68.27;100721.22;5018939;28;70520;-38
2022/10/10 07:59:59;;;;;;;44.58;39.80;;;;;;;31.89;68.58;100725.84;5018431;28;67374;-38
2022/10/10 08:02:39;;;;;;;42.63;38.20;;;;;;;31.91;68.62;100730.00;5020661;28;70000;-37
2022/10/10 08:05:11;;;;;;;38.03;34.20;;;;;;;31.88;68.10;100725.00;5019584;28;66483;-37
2022/10/10 08:07:42;;;;;;;35.60;31.80;;;;;;;31.93;68.09;100725.19;5017257;28;69263;-37
2022/10/10 08:10:13;;;;;;;34.05;29.85;;;;;;;31.95;68.17;100728.47;5019171;28;66322;-38
2022/10/10 08:12:43;;;;;;;34.97;31.48;;;;;;;31.95;67.55;100725.75;5018692;28;70611;-39
2022/10/10 08:15:14;;;;;;;32.97;29.35;;;;;;;31.97;67.85;100723.63;5017710;28;65755;-38
2022/10/10 08:17:44;;;;;;;30.13;26.90;;;;;;;31.97;67.71;100722.81;5010690;28;70520;-38
2022/10/10 08:20:15;;;;;;;33.72;24.90;;;;;;;31.94;67.65;100712.44;5014378;28;65721;-38
2022/10/10 08:22:46;;;;;;;32.10;28.58;;;;;;;32.00;67.46;100717.75;5018587;28;70202;-38
2022/10/10 08:25:17;;;;;;;26.97;24.27;;;;;;;31.99;67.28;100718.00;5019329;28;66713;-38
2022/10/10 08:27:47;;;;;;;24.67;22.25;;;;;;;31.99;67.51;100709.84;5018646;28;68648;-38
2022/10/10 08:30:18;;;;;;;24.25;21.35;;;;;;;32.02;67.30;100721.06;5016386;28;66281;-38
2022/10/10 08:32:48;;;;;;;24.95;22.35;;;;;;;32.02;67.19;100710.22;5011638;28;69214;-38
2022/10/10 08:35:19;;;;;;;23.40;20.98;;;;;;;32.03;67.09;100711.03;5018314;28;66018;-38
2022/10/10 08:37:50;;;;;;;26.25;19.60;;;;;;;32.04;67.14;100708.09;5000717;28;68362;-37
2022/10/10 08:40:22;;;;;;;22.38;17.83;;;;;;;32.01;67.13;100692.28;5014369;28;66237;-38
2022/10/10 08:42:55;;;;;;;19.55;17.48;;;;;;;31.71;66.88;100642.66;5017161;28;70168;-39
2022/10/10 08:45:28;;;;;;;18.17;16.50;;;;;;;31.64;66.65;100626.47;5019264;28;65629;-39
2022/10/10 08:48:07;;;;;;;18.23;16.55;;;;;;;32.10;66.77;100689.25;5019837;28;69489;-38
2022/10/10 08:50:46;;;;;;;18.85;16.15;;;;;;;31.71;66.50;100621.78;5016570;28;65814;-38
2022/10/10 08:53:16;;;;;;;16.88;15.27;;;;;;;32.15;66.56;100681.19;5017522;28;69550;-38
2022/10/10 08:55:48;;;;;;;16.88;15.18;;;;;;;32.17;66.69;100679.09;5020431;28;66449;-37
2022/10/10 08:58:30;;;;;;;16.37;14.67;;;;;;;32.17;66.77;100679.09;5020688;28;70250;-38
2022/10/10 09:01:00;;;;;;;15.57;14.20;;;;;;;32.20;66.77;100673.19;5019119;28;66667;-39
2022/10/10 09:03:59;;;;;;;16.10;13.27;;;;;;;31.31;66.57;100537.47;5021305;28;70673;-38
2022/10/10 09:06:55;;;;;;;17.55;13.27;;;;;;;32.17;66.72;100662.81;5021760;28;66329;-37
2022/10/10 09:09:56;;;;;;;16.25;12.68;;;;;;;32.13;66.64;100656.22;5019107;28;69117;-37
2022/10/10 09:12:29;;;;;;;13.65;12.30;;;;;;;32.22;66.77;100660.22;5018284;28;66590;-42
2022/10/10 09:15:12;;;;;;;14.20;12.73;;;;;;;32.07;66.43;100616.41;5002881;28;69914;-38
2022/10/10 09:17:47;;;;;;;12.18;11.02;;;;;;;32.26;66.40;100645.09;5007093;28;66276;-38
2022/10/10 09:20:18;;;;;;;12.90;10.88;;;;;;;32.26;66.61;100650.53;5016472;28;69808;-38
2022/10/10 09:23:12;;;;;;;12.52;11.48;;;;;;;32.20;66.06;100646.06;5015336;28;65717;-37
2022/10/10 09:26:11;;;;;;;14.98;10.90;;;;;;;31.91;66.19;100598.94;5013970;28;69479;-38
2022/10/10 09:28:51;;;;;;;18.67;11.15;;;;;;;31.80;66.20;100587.00;5013293;28;66775;-38
2022/10/10 09:31:32;;;;;;;13.88;10.10;;;;;;;31.84;66.32;100599.03;5010267;28;69748;-38
2022/10/10 09:34:44;;;;;;;11.00;9.95;;;;;;;32.18;66.49;100670.72;5012555;28;66772;-38
2022/10/10 09:37:19;;;;;;;11.63;10.40;;;;;;;32.28;66.41;100667.41;5011994;28;70056;-38
2022/10/10 09:40:28;;;;;;;11.55;10.48;;;;;;;32.26;66.35;100677.69;5012525;28;66132;-37
2022/10/10 09:43:09;;;;;;;11.63;10.75;;;;;;;32.18;66.58;100664.44;5005038;28;70560;-38
2022/10/10 09:45:50;;;;;;;13.73;11.38;;;;;;;32.17;66.63;100676.38;5010140;28;65108;-37
2022/10/10 09:48:35;;;;;;;16.38;11.30;;;;;;;32.25;66.69;100693.13;5007238;28;70238;-38
2022/10/10 09:51:17;;;;;;;14.35;11.70;;;;;;;31.86;66.53;100645.75;5014072;28;66684;-38
2022/10/10 09:53:49;;;;;;;15.43;11.25;;;;;;;32.31;66.37;100718.50;5008979;28;70735;-37
2022/10/10 09:56:24;;;;;;;20.05;10.93;;;;;;;32.31;66.63;100728.56;5010663;28;65835;-37
2022/10/10 09:58:56;;;;;;;14.52;12.35;;;;;;;32.30;66.57;100744.03;5011434;28;69521;-37
2022/10/10 10:01:34;;;;;;;12.70;11.32;;;;;;;31.82;66.32;100663.56;5012978;28;66260;-37
2022/10/10 10:04:15;;;;;;;12.18;11.05;;;;;;;32.30;66.54;100754.88;4999845;28;68905;-37
2022/10/10 10:07:17;;;;;;;14.43;11.98;;;;;;;32.18;66.83;100756.72;5011824;28;65348;-38
2022/10/10 10:10:03;;;;;;;13.68;12.25;;;;;;;32.23;66.88;100765.00;5014398;28;69374;-38
2022/10/10 10:12:42;;;;;;;30.25;12.05;;;;;;;31.79;66.72;100693.84;5012550;28;65905;-38
2022/10/10 10:15:31;;;;;;;15.10;11.85;;;;;;;32.05;67.18;100747.72;4998334;28;69290;-39
2022/10/10 10:18:20;;;;;;;17.75;12.43;;;;;;;32.14;67.17;100760.97;5010422;28;65743;-37
2022/10/10 10:21:02;;;;;;;15.93;13.43;;;;;;;31.68;67.52;100700.88;5011576;28;70278;-39
2022/10/10 10:23:36;;;;;;;23.05;13.70;;;;;;;31.75;68.65;100758.56;5017090;28;65328;-38
2022/10/10 10:26:19;;;;;;;18.50;14.35;;;;;;;31.23;69.83;100705.81;5005075;28;70609;-37
2022/10/10 10:28:51;;;;;;;27.55;15.38;;;;;;;31.64;70.56;100772.06;5017282;28;66771;-39
2022/10/10 10:31:21;;;;;;;;;;;;;;;31.29;71.79;100776.22;5019750;28;70149;-38
2022/10/10 10:34:19;;;;;;;23.02;15.88;;;;;;;31.41;71.48;100768.16;5020573;28;67067;-39
2022/10/10 10:37:11;;;;;;;22.60;16.05;;;;;;;31.47;71.53;100780.00;5017696;28;69996;-39
2022/10/10 10:39:59;;;;;;;26.58;16.83;;;;;;;31.13;72.16;100739.69;5018882;28;65098;-38
2022/10/10 10:42:54;;;;;;;24.48;16.58;;;;;;;31.39;73.16;100781.13;5018899;28;70099;-38
2022/10/10 10:45:39;;;;;;;20.17;16.25;;;;;;;31.10;73.69;100755.56;5015436;28;66211;-38
2022/10/10 10:48:29;;;;;;;20.48;16.55;;;;;;;31.51;73.06;100803.72;5010406;28;70482;-38
2022/10/10 10:51:05;;;;;;;23.02;16.30;;;;;;;31.73;70.98;100808.66;5020058;28;66253;-39
2022/10/10 10:53:55;;;;;;;19.40;16.27;;;;;;;31.72;71.87;100813.25;5002209;28;70629;-39
2022/10/10 10:56:40;;;;;;;17.77;16.10;;;;;;;31.86;70.53;100822.06;5018391;28;66957;-38
2022/10/10 10:59:43;;;;;;;19.30;16.77;;;;;;;31.79;71.51;100814.00;5016851;28;69679;-38
2022/10/10 11:02:54;;;;;;;33.78;17.25;;;;;;;31.91;71.27;100837.66;5019961;28;65751;-40
2022/10/10 11:05:50;;;;;;;18.92;17.00;;;;;;;31.90;71.42;100825.97;5020163;28;70664;-38
2022/10/10 11:08:38;;;;;;;19.45;15.65;;;;;;;31.93;72.04;100836.41;5016625;28;67578;-39
2022/10/10 11:11:33;;;;;;;19.92;16.05;;;;;;;31.86;72.11;100841.03;5017388;28;69980;-39
2022/10/10 11:14:46;;;;;;;25.40;16.73;;;;;;;31.94;71.44;100842.66;5014714;28;66309;-39
2022/10/10 11:17:27;;;;;;;18.23;15.95;;;;;;;31.73;71.19;100819.50;4924340;28;70281;-39
2022/10/10 11:20:31;;;;;;;28.42;16.35;;;;;;;31.83;72.21;100847.75;5012675;28;66284;-39
2022/10/10 11:23:15;;;;;;;23.63;16.42;;;;;;;31.95;71.39;100849.72;5010757;28;69300;-39
2022/10/10 11:26:05;;;;;;;23.90;17.20;;;;;;;31.86;71.74;100843.75;5015698;28;65902;-40
2022/10/10 11:28:46;;;;;;;23.40;17.70;;;;;;;31.91;71.85;100841.22;5012857;28;70521;-38
2022/10/10 11:31:20;;;;;;;;;;;;;;;31.60;72.97;100843.03;5011229;28;65596;-38
2022/10/10 11:34:06;;;;;;;28.42;19.25;;;;;;;31.55;72.63;100802.19;5016924;28;69019;-38
2022/10/10 11:36:41;;;;;;;21.38;17.50;;;;;;;31.13;71.52;100720.72;5000055;28;66499;-39
2022/10/10 11:39:23;;;;;;;20.25;18.27;;;;;;;31.81;71.88;100849.03;5014954;28;70220;-40
2022/10/10 11:41:59;;;;;;;25.70;18.13;;;;;;;31.54;71.66;100800.56;5014721;28;65738;-39
2022/10/10 11:45:01;;;;;;;25.65;18.25;;;;;;;31.77;72.29;100864.13;5014029;28;70144;-38
2022/10/10 11:47:41;;;;;;;30.48;18.35;;;;;;;31.87;71.79;100875.25;4992803;28;65969;-38
2022/10/10 11:50:23;;;;;;;22.92;17.85;;;;;;;31.37;71.65;100796.78;5012578;28;70377;-39
2022/10/10 11:53:02;;;;;;;26.52;19.02;;;;;;;31.87;71.53;100880.66;5014180;28;65196;-38